Time;durP1;ratioP1;P1;durP2;ratioP2;P2;SDS_P1;SDS_P2;PMS_P1;PMS_P2;Temp;Humidity;BMP_temperature;BMP_pressure;BME280_temperature;BME280_humidity;BME280_pressure;Samples;Min_cycle;Max_cycle;Signal;HPM_P1;HPM_P2
2024/02/07 00:00:26;;;;;;;2.90;1.90;;;8.40;99.90;;;;;;4964231;28;20181;-85
2024/02/07 00:02:52;;;;;;;3.90;1.90;;;7.90;99.90;;;;;;4969153;28;20200;-86
2024/02/07 00:05:17;;;;;;;2.50;1.90;;;8.20;99.90;;;;;;4961672;28;20746;-86
2024/02/07 00:07:44;;;;;;;2.93;2.53;;;8.70;99.90;;;;;;4969796;28;20196;-86
2024/02/07 00:10:11;;;;;;;3.28;2.22;;;8.60;99.90;;;;;;4961026;28;20224;-86
2024/02/07 00:12:36;;;;;;;2.42;2.10;;;8.20;99.90;;;;;;4966467;28;20205;-85
2024/02/07 00:15:02;;;;;;;3.90;2.07;;;8.50;99.90;;;;;;4972112;28;20216;-85
2024/02/07 00:17:27;;;;;;;2.43;1.70;;;8.30;99.90;;;;;;4973631;28;20181;-85
2024/02/07 00:19:53;;;;;;;4.77;1.90;;;8.30;99.90;;;;;;4964930;28;20275;-85
2024/02/07 00:22:18;;;;;;;3.47;2.07;;;8.70;99.90;;;;;;4970010;28;20188;-85
2024/02/07 00:24:44;;;;;;;3.43;1.90;;;8.50;99.90;;;;;;4972329;28;20642;-85
2024/02/07 00:27:09;;;;;;;2.77;1.83;;;8.20;99.90;;;;;;4963989;28;20204;-85
2024/02/07 00:29:36;;;;;;;3.83;2.17;;;8.20;99.90;;;;;;4971333;28;20305;-85
2024/02/07 00:32:01;;;;;;;3.55;2.10;;;8.20;99.90;;;;;;4971175;28;20192;-84
2024/02/07 00:34:27;;;;;;;2.70;1.70;;;8.30;99.90;;;;;;4981782;28;20216;-84
2024/02/07 00:36:52;;;;;;;2.43;1.87;;;8.00;99.90;;;;;;4979514;28;20178;-85
2024/02/07 00:39:18;;;;;;;3.30;1.97;;;8.70;99.90;;;;;;4970951;28;20188;-85
2024/02/07 00:41:44;;;;;;;4.97;2.33;;;8.60;99.90;;;;;;4967792;28;20195;-85
2024/02/07 00:44:09;;;;;;;2.10;1.85;;;7.70;99.90;;;;;;4969218;28;20192;-85
2024/02/07 00:46:35;;;;;;;3.70;2.30;;;8.60;99.90;;;;;;4967631;28;20211;-85
2024/02/07 00:49:03;;;;;;;4.20;2.33;;;8.20;99.90;;;;;;4969276;28;20180;-85
2024/02/07 00:51:32;;;;;;;5.20;2.05;;;8.20;99.90;;;;;;4968303;28;20188;-85
2024/02/07 00:53:57;;;;;;;2.85;1.73;;;8.10;99.90;;;;;;4965757;28;20213;-84
2024/02/07 00:56:23;;;;;;;2.40;2.17;;;7.90;99.90;;;;;;4966993;28;20204;-85
2024/02/07 00:58:48;;;;;;;4.93;2.37;;;8.20;99.90;;;;;;4966374;28;20189;-84
2024/02/07 01:01:15;;;;;;;2.53;2.10;;;8.20;99.90;;;;;;4968513;28;20514;-85
2024/02/07 01:03:40;;;;;;;2.75;1.70;;;8.20;99.90;;;;;;4966767;28;20189;-85
2024/02/07 01:06:06;;;;;;;5.07;2.30;;;8.70;99.90;;;;;;4971269;28;20553;-85
2024/02/07 01:08:32;;;;;;;5.50;2.05;;;8.20;99.90;;;;;;4970751;28;20177;-85
2024/02/07 01:10:57;;;;;;;2.10;1.90;;;8.60;99.90;;;;;;4968902;28;20191;-85
2024/02/07 01:13:23;;;;;;;2.27;1.80;;;8.70;99.90;;;;;;4975165;28;20289;-85
2024/02/07 01:15:48;;;;;;;2.77;2.50;;;8.30;99.90;;;;;;4970488;28;20712;-85
2024/02/07 01:18:14;;;;;;;3.33;2.17;;;8.20;99.90;;;;;;4975237;28;20260;-85
2024/02/07 01:20:39;;;;;;;2.23;2.03;;;8.40;99.90;;;;;;4977736;28;20198;-85
2024/02/07 01:23:08;;;;;;;2.40;2.07;;;8.20;99.90;;;;;;4974323;28;20382;-85
2024/02/07 01:25:33;;;;;;;2.97;2.33;;;8.70;99.90;;;;;;4969909;28;20660;-85
2024/02/07 01:27:59;;;;;;;2.70;2.00;;;8.20;99.90;;;;;;4971431;28;20197;-85
2024/02/07 01:30:24;;;;;;;2.80;2.23;;;8.30;99.90;;;;;;4973119;28;20184;-85
2024/02/07 01:32:50;;;;;;;3.50;2.50;;;8.70;99.90;;;;;;4976078;28;20313;-85
2024/02/07 01:35:16;;;;;;;2.20;1.90;;;8.40;99.90;;;;;;4974865;28;20223;-85
2024/02/07 01:37:42;;;;;;;4.00;2.40;;;8.20;99.90;;;;;;4974021;28;20224;-85
2024/02/07 01:40:11;;;;;;;2.38;2.13;;;8.30;99.90;;;;;;4976760;28;20268;-86
2024/02/07 01:42:37;;;;;;;4.15;2.22;;;8.30;99.90;;;;;;4975603;28;20211;-85
2024/02/07 01:45:31;;;;;;;3.00;2.53;;;8.30;99.90;;;;;;4973581;28;20207;-85
2024/02/07 01:47:58;;;;;;;2.95;2.30;;;8.50;99.90;;;;;;4972910;28;20256;-85
2024/02/07 01:50:24;;;;;;;2.35;2.00;;;8.30;99.90;;;;;;4972199;28;20181;-85
2024/02/07 01:52:54;;;;;;;2.80;2.53;;;8.50;99.90;;;;;;4975453;28;20214;-85
2024/02/07 01:55:20;;;;;;;3.50;2.22;;;8.20;99.90;;;;;;4974514;28;20254;-84
2024/02/07 01:57:48;;;;;;;3.17;2.25;;;8.40;99.90;;;;;;4976522;28;20248;-85
2024/02/07 02:00:14;;;;;;;2.55;2.35;;;8.40;99.90;;;;;;4972331;28;20184;-85
2024/02/07 02:02:40;;;;;;;2.80;2.20;;;8.30;99.90;;;;;;4976960;28;20189;-85
2024/02/07 02:05:06;;;;;;;3.53;2.20;;;8.30;99.90;;;;;;4974850;28;20554;-85
2024/02/07 02:07:32;;;;;;;2.97;2.35;;;8.80;99.90;;;;;;4971257;28;20185;-85
2024/02/07 02:09:58;;;;;;;3.87;2.40;;;8.30;99.90;;;;;;4972861;28;20191;-85
2024/02/07 02:12:24;;;;;;;2.10;2.00;;;8.30;99.90;;;;;;4976514;28;20188;-85
2024/02/07 02:14:50;;;;;;;2.33;2.13;;;8.20;99.90;;;;;;4970708;28;20339;-85
2024/02/07 02:17:15;;;;;;;3.30;2.20;;;8.80;99.90;;;;;;4973439;28;20225;-85
2024/02/07 02:19:41;;;;;;;2.70;1.90;;;8.40;99.90;;;;;;4976578;28;20440;-85
2024/02/07 02:22:24;;;;;;;2.23;2.00;;;8.30;99.90;;;;;;4972097;28;20223;-85
2024/02/07 02:25:22;;;;;;;4.22;2.42;;;8.30;99.90;;;;;;4972901;28;20255;-85
2024/02/07 02:27:57;;;;;;;2.20;2.00;;;8.40;99.90;;;;;;4968592;28;20227;-85
2024/02/07 02:30:33;;;;;;;2.60;2.03;;;8.30;99.90;;;;;;4980905;28;20188;-85
2024/02/07 02:33:09;;;;;;;2.70;1.90;;;8.70;99.90;;;;;;4971770;28;20670;-85
2024/02/07 02:35:36;;;;;;;2.65;2.03;;;8.40;99.90;;;;;;4972335;28;20200;-85
2024/02/07 02:38:02;;;;;;;2.83;2.10;;;8.60;99.90;;;;;;4976361;28;20176;-85
2024/02/07 02:40:29;;;;;;;3.13;1.98;;;8.40;99.90;;;;;;4973140;28;20265;-85
2024/02/07 02:42:57;;;;;;;4.40;2.60;;;8.60;99.90;;;;;;4969535;28;20181;-85
2024/02/07 02:45:23;;;;;;;2.72;2.20;;;9.00;99.90;;;;;;4974921;28;20201;-84
2024/02/07 02:47:48;;;;;;;6.10;2.30;;;9.00;99.90;;;;;;4974639;28;20208;-86
2024/02/07 02:50:16;;;;;;;4.17;2.23;;;9.00;99.90;;;;;;4973012;28;20220;-86
2024/02/07 02:52:41;;;;;;;2.45;2.22;;;8.50;99.90;;;;;;4970954;28;20204;-85
2024/02/07 02:55:07;;;;;;;2.40;2.20;;;8.60;99.90;;;;;;4971057;28;20209;-85
2024/02/07 02:57:34;;;;;;;2.17;1.90;;;8.40;99.90;;;;;;4971531;28;20182;-83
2024/02/07 03:00:06;;;;;;;2.60;1.85;;;9.00;99.90;;;;;;4971257;28;20181;-85
2024/02/07 03:02:34;;;;;;;3.40;2.08;;;8.60;99.90;;;;;;4971576;28;20207;-85
2024/02/07 03:05:02;;;;;;;3.75;2.15;;;8.70;99.90;;;;;;4969129;28;20324;-86
2024/02/07 03:07:54;;;;;;;2.05;1.88;;;9.00;99.90;;;;;;4972137;28;20207;-85
2024/02/07 03:10:23;;;;;;;2.80;2.15;;;8.60;99.90;;;;;;4972465;28;20283;-85
2024/02/07 03:12:50;;;;;;;2.60;1.90;;;8.80;99.90;;;;;;4969020;28;20248;-86
2024/02/07 03:15:16;;;;;;;3.92;2.00;;;8.30;99.90;;;;;;4965255;28;20204;-85
2024/02/07 03:17:42;;;;;;;3.20;2.30;;;9.00;99.90;;;;;;4968051;28;20317;-85
2024/02/07 03:20:11;;;;;;;2.50;2.10;;;8.70;99.90;;;;;;4972240;28;20484;-85
2024/02/07 03:22:37;;;;;;;6.13;2.42;;;8.80;99.90;;;;;;4972232;28;20198;-85
2024/02/07 03:25:03;;;;;;;7.22;2.80;;;8.90;99.90;;;;;;4969967;28;20300;-85
2024/02/07 03:27:29;;;;;;;3.80;2.30;;;8.70;99.90;;;;;;4971197;28;20423;-85
2024/02/07 03:29:56;;;;;;;2.30;2.10;;;9.30;99.90;;;;;;4969136;28;20646;-85
2024/02/07 03:32:25;;;;;;;2.13;1.92;;;9.30;99.90;;;;;;4968404;28;20427;-85
2024/02/07 03:34:51;;;;;;;3.15;2.30;;;8.90;99.90;;;;;;4973325;28;20226;-85
2024/02/07 03:37:17;;;;;;;2.38;2.15;;;9.00;99.90;;;;;;4972634;28;20173;-85
2024/02/07 03:39:43;;;;;;;3.10;2.00;;;8.90;99.90;;;;;;4971033;28;21014;-85
2024/02/07 03:42:10;;;;;;;2.60;1.90;;;9.40;99.90;;;;;;4972600;28;20959;-85
2024/02/07 03:44:37;;;;;;;2.20;2.00;;;9.10;99.90;;;;;;4968331;28;20438;-85
2024/02/07 03:47:03;;;;;;;3.20;2.33;;;9.10;99.90;;;;;;4973781;28;20228;-85
2024/02/07 03:49:29;;;;;;;2.42;2.15;;;9.10;99.90;;;;;;4968810;28;20548;-85
2024/02/07 03:51:54;;;;;;;2.47;2.27;;;9.40;99.90;;;;;;4969560;28;20196;-85
2024/02/07 03:54:20;;;;;;;4.30;2.47;;;9.10;99.90;;;;;;4969191;28;20204;-86
2024/02/07 03:56:45;;;;;;;4.60;2.20;;;9.10;99.90;;;;;;4971161;28;20189;-85
2024/02/07 03:59:11;;;;;;;3.27;2.20;;;9.20;99.90;;;;;;4967287;28;20264;-85
2024/02/07 04:01:36;;;;;;;3.03;2.27;;;9.30;99.90;;;;;;4966725;28;20185;-85
2024/02/07 04:04:05;;;;;;;5.23;2.33;;;9.50;99.90;;;;;;4971100;28;20202;-85
2024/02/07 04:06:31;;;;;;;2.85;2.22;;;9.00;99.90;;;;;;4964866;28;20220;-85
2024/02/07 04:08:57;;;;;;;5.03;2.60;;;9.40;99.90;;;;;;4972848;28;20619;-85
2024/02/07 05:16:33;;;;;;;1.80;1.63;;;9.10;99.90;;;;;;4975688;28;20235;-86
2024/02/07 05:19:01;;;;;;;2.60;1.73;;;9.60;99.90;;;;;;4959469;28;20193;-86
2024/02/07 05:21:27;;;;;;;3.25;2.30;;;9.70;99.90;;;;;;4955614;28;20638;-86
2024/02/07 05:23:53;;;;;;;2.90;1.80;;;10.20;99.90;;;;;;4954962;28;20212;-86
2024/02/07 05:26:18;;;;;;;3.40;1.97;;;9.70;99.90;;;;;;4955158;28;20220;-86
2024/02/07 05:28:44;;;;;;;2.10;1.70;;;10.00;99.90;;;;;;4953453;28;20253;-86
2024/02/07 05:31:10;;;;;;;3.20;2.08;;;9.60;99.90;;;;;;4963473;28;20201;-86
2024/02/07 05:33:39;;;;;;;4.88;2.00;;;10.00;99.90;;;;;;4975091;28;20245;-86
2024/02/07 05:36:04;;;;;;;2.28;2.05;;;9.60;99.90;;;;;;4959752;28;20634;-86
2024/02/07 05:38:31;;;;;;;3.10;2.13;;;9.40;99.90;;;;;;4967679;28;20187;-86
2024/02/07 05:40:59;;;;;;;2.42;2.22;;;9.50;99.90;;;;;;4968480;28;20407;-86
2024/02/07 05:43:25;;;;;;;3.00;2.03;;;10.30;99.90;;;;;;4964197;28;20190;-86
2024/02/07 05:45:50;;;;;;;2.43;2.23;;;9.60;99.90;;;;;;4975994;28;20197;-86
2024/02/07 05:48:17;;;;;;;2.80;2.53;;;10.00;99.90;;;;;;4980568;28;20256;-86
2024/02/07 05:50:44;;;;;;;5.90;3.17;;;10.00;99.90;;;;;;4971405;28;20189;-86
2024/02/07 05:53:11;;;;;;;4.72;2.38;;;9.50;99.90;;;;;;4961038;28;20223;-86
2024/02/07 05:55:37;;;;;;;5.45;2.45;;;9.20;99.90;;;;;;4957072;28;20205;-86
2024/02/07 05:58:02;;;;;;;3.40;3.10;;;9.60;99.90;;;;;;4961642;28;20225;-86
2024/02/07 06:00:28;;;;;;;4.90;3.47;;;9.80;99.90;;;;;;4966136;28;20199;-86
2024/02/07 06:02:54;;;;;;;4.10;2.37;;;9.50;99.90;;;;;;4961297;28;20560;-87
2024/02/07 06:05:22;;;;;;;2.75;2.42;;;10.00;99.90;;;;;;4963719;28;20220;-86
2024/02/07 06:07:47;;;;;;;4.78;2.40;;;9.50;99.90;;;;;;4964216;28;20196;-87
2024/02/07 06:10:13;;;;;;;4.20;2.10;;;9.90;99.90;;;;;;4965433;28;20185;-87
2024/02/07 06:12:44;;;;;;;2.50;2.30;;;10.10;99.90;;;;;;4970412;28;20189;-87
2024/02/07 06:15:10;;;;;;;2.00;1.80;;;9.70;99.90;;;;;;4997754;28;20260;-86
2024/02/07 06:17:35;;;;;;;2.50;2.30;;;9.60;99.90;;;;;;4982157;28;20189;-86
2024/02/07 06:20:01;;;;;;;3.17;2.07;;;10.00;99.90;;;;;;4970783;28;20471;-87
2024/02/07 06:22:27;;;;;;;6.63;2.40;;;10.10;99.90;;;;;;4969669;28;20198;-87
2024/02/07 06:24:53;;;;;;;2.13;1.80;;;9.40;99.90;;;;;;4972513;28;20205;-87
2024/02/07 06:27:19;;;;;;;3.20;2.42;;;10.10;99.90;;;;;;4970096;28;20182;-86
2024/02/07 06:29:45;;;;;;;3.30;2.20;;;9.80;99.90;;;;;;4986716;28;20584;-85
2024/02/07 06:32:10;;;;;;;2.70;2.50;;;9.40;99.90;;;;;;4964391;28;20209;-86
2024/02/07 06:34:37;;;;;;;4.67;3.17;;;9.50;99.90;;;;;;4970171;28;20209;-86
2024/02/07 06:37:03;;;;;;;5.18;2.90;;;10.10;99.90;;;;;;4966257;28;20177;-87
2024/02/07 06:39:28;;;;;;;3.70;3.10;;;9.70;99.90;;;;;;4964488;28;20182;-87
2024/02/07 06:41:55;;;;;;;4.17;2.40;;;9.40;99.90;;;;;;4965221;28;20191;-85
2024/02/07 06:44:21;;;;;;;3.08;2.50;;;9.60;99.90;;;;;;4963172;28;20491;-87
2024/02/07 06:46:46;;;;;;;4.23;2.50;;;11.30;99.90;;;;;;4968560;28;20695;-87
2024/02/07 06:49:12;;;;;;;3.27;2.50;;;9.50;99.90;;;;;;4983522;28;20208;-87
2024/02/07 06:51:40;;;;;;;3.00;2.63;;;9.70;99.90;;;;;;4961332;28;20455;-88
2024/02/07 06:54:06;;;;;;;5.30;2.65;;;10.10;99.90;;;;;;4975984;28;20819;-85
2024/02/07 06:56:32;;;;;;;7.50;2.97;;;9.70;99.90;;;;;;4964601;28;20206;-86
2024/02/07 06:58:57;;;;;;;3.90;2.53;;;9.90;99.90;;;;;;4966833;28;20296;-86
2024/02/07 07:01:24;;;;;;;4.37;2.80;;;10.30;99.90;;;;;;4972561;28;20213;-85
2024/02/07 07:03:51;;;;;;;5.85;2.90;;;9.60;99.90;;;;;;4975914;28;20283;-85
2024/02/07 07:06:17;;;;;;;3.45;2.40;;;10.00;99.90;;;;;;4972265;28;20229;-86
2024/02/07 07:08:44;;;;;;;2.60;2.40;;;10.10;99.90;;;;;;4977480;28;20246;-85
2024/02/07 07:11:09;;;;;;;3.70;2.80;;;10.40;99.90;;;;;;4972455;28;20181;-85
2024/02/07 07:13:35;;;;;;;3.70;2.60;;;10.30;99.90;;;;;;4968198;28;20244;-87
2024/02/07 07:16:00;;;;;;;4.13;2.80;;;10.30;99.90;;;;;;4971112;28;20268;-88
2024/02/07 07:18:26;;;;;;;3.27;2.40;;;9.80;99.90;;;;;;4969097;28;20589;-87
2024/02/07 07:20:52;;;;;;;2.93;2.63;;;10.50;99.90;;;;;;4962006;28;20757;-87
2024/02/07 07:23:17;;;;;;;2.93;2.33;;;10.50;99.90;;;;;;4969020;28;20231;-87
2024/02/07 07:25:43;;;;;;;2.30;2.10;;;9.90;99.90;;;;;;4971538;28;20234;-86
2024/02/07 07:28:09;;;;;;;5.30;2.85;;;10.20;99.90;;;;;;4967551;28;20185;-86
2024/02/07 07:30:35;;;;;;;4.60;2.70;;;10.50;99.90;;;;;;4965111;28;20301;-87
2024/02/07 07:33:02;;;;;;;6.57;3.28;;;10.30;99.90;;;;;;4972441;28;20217;-88
2024/02/07 07:35:28;;;;;;;2.90;2.50;;;10.30;99.90;;;;;;4980566;28;20244;-81
2024/02/07 07:37:54;;;;;;;3.73;2.70;;;10.40;99.90;;;;;;4970670;28;20186;-83
2024/02/07 07:40:20;;;;;;;4.18;2.83;;;10.60;99.90;;;;;;4972359;28;20249;-81
2024/02/07 07:42:46;;;;;;;3.47;2.57;;;10.60;99.90;;;;;;4957839;28;20209;-82
2024/02/07 07:45:11;;;;;;;4.60;2.33;;;10.10;99.90;;;;;;4969671;28;20247;-84
2024/02/07 07:47:39;;;;;;;4.30;3.00;;;10.50;99.90;;;;;;4968965;28;20193;-85
2024/02/07 07:50:07;;;;;;;4.85;3.33;;;10.20;99.90;;;;;;4970217;28;20225;-85
2024/02/07 07:52:34;;;;;;;4.13;3.63;;;10.70;99.90;;;;;;4988169;28;20186;-85
2024/02/07 07:54:59;;;;;;;4.75;2.70;;;10.30;99.90;;;;;;4985288;28;20274;-85
2024/02/07 07:57:25;;;;;;;3.30;2.57;;;10.30;99.90;;;;;;4984094;28;20645;-85
2024/02/07 07:59:50;;;;;;;5.60;2.60;;;10.40;99.90;;;;;;4965509;28;20191;-85
2024/02/07 08:02:16;;;;;;;4.00;2.30;;;10.80;99.90;;;;;;4963363;28;20209;-87
2024/02/07 08:04:42;;;;;;;3.80;2.20;;;10.30;99.90;;;;;;4961257;28;20211;-87
2024/02/07 08:07:08;;;;;;;5.23;2.17;;;10.60;99.90;;;;;;4947287;28;20197;-87
2024/02/07 08:09:34;;;;;;;4.60;2.53;;;10.30;99.90;;;;;;4965271;28;20206;-86
2024/02/07 08:12:01;;;;;;;4.13;3.10;;;11.00;99.90;;;;;;4959889;28;20186;-87
2024/02/07 08:14:26;;;;;;;4.75;2.90;;;10.50;99.90;;;;;;4961419;28;20205;-86
2024/02/07 08:16:52;;;;;;;4.43;2.20;;;10.50;99.90;;;;;;4963265;28;20238;-86
2024/02/07 08:19:18;;;;;;;3.70;3.30;;;10.40;99.90;;;;;;4948775;28;20189;-87
2024/02/07 08:21:43;;;;;;;8.67;2.73;;;10.60;99.90;;;;;;4959802;28;20183;-87
2024/02/07 08:24:09;;;;;;;3.00;2.60;;;10.60;99.90;;;;;;4961214;28;20198;-86
2024/02/07 08:26:34;;;;;;;5.40;3.00;;;10.80;99.90;;;;;;4967051;28;20435;-86
2024/02/07 08:29:00;;;;;;;5.70;3.77;;;10.70;99.90;;;;;;4962156;28;20315;-85
2024/02/07 08:31:25;;;;;;;4.63;2.90;;;10.20;99.90;;;;;;4974151;28;20724;-87
2024/02/07 08:33:51;;;;;;;5.63;2.20;;;10.80;99.90;;;;;;4961538;28;20271;-87
2024/02/07 08:36:18;;;;;;;3.00;2.00;;;11.00;99.90;;;;;;4966449;28;20209;-86
2024/02/07 08:38:43;;;;;;;2.40;2.20;;;11.00;99.90;;;;;;4960108;28;20256;-87
2024/02/07 08:41:09;;;;;;;3.20;2.70;;;10.80;99.90;;;;;;4958456;28;20600;-85
2024/02/07 08:43:35;;;;;;;4.80;2.40;;;10.80;99.90;;;;;;4960533;28;20266;-87
2024/02/07 08:46:00;;;;;;;5.60;2.30;;;10.80;99.90;;;;;;4959484;28;20217;-85
2024/02/07 08:48:26;;;;;;;5.03;2.43;;;11.10;99.90;;;;;;4959470;28;20453;-86
2024/02/07 08:50:51;;;;;;;4.10;2.70;;;10.90;99.90;;;;;;4960953;28;20190;-86
2024/02/07 08:53:17;;;;;;;4.43;2.63;;;10.90;99.90;;;;;;4958936;28;20287;-84
2024/02/07 08:55:42;;;;;;;3.20;2.70;;;12.20;99.90;;;;;;4963707;28;20206;-85
2024/02/07 08:58:08;;;;;;;4.07;2.60;;;11.00;99.90;;;;;;4961891;28;20190;-86
2024/02/07 09:00:36;;;;;;;5.60;2.40;;;11.20;99.90;;;;;;4959438;28;20219;-85
2024/02/07 09:03:02;;;;;;;4.85;2.33;;;10.40;99.90;;;;;;4963395;28;20198;-85
2024/02/07 09:05:27;;;;;;;4.03;2.23;;;11.10;99.90;;;;;;4957635;28;20210;-86
2024/02/07 09:07:53;;;;;;;3.40;3.10;;;10.90;99.90;;;;;;4961380;28;20481;-86
2024/02/07 09:10:20;;;;;;;4.90;2.63;;;10.50;99.90;;;;;;4954117;28;20224;-86
2024/02/07 09:12:45;;;;;;;4.43;2.83;;;11.00;99.90;;;;;;4962679;28;20204;-85
2024/02/07 09:15:11;;;;;;;4.07;2.07;;;11.30;99.90;;;;;;4955715;28;20208;-87
2024/02/07 09:17:37;;;;;;;2.80;2.50;;;10.90;99.90;;;;;;4960211;28;20195;-86
2024/02/07 09:20:02;;;;;;;3.23;2.60;;;11.20;99.90;;;;;;4959281;28;20267;-87
2024/02/07 09:22:28;;;;;;;3.37;2.50;;;10.90;99.90;;;;;;4964181;28;20204;-86
2024/02/07 09:24:54;;;;;;;4.60;2.77;;;10.80;99.90;;;;;;4945587;28;20297;-86
2024/02/07 09:27:19;;;;;;;2.87;2.17;;;11.30;99.90;;;;;;4959771;28;20198;-86
2024/02/07 09:29:45;;;;;;;4.80;2.40;;;11.30;99.90;;;;;;4961043;28;20198;-84
2024/02/07 09:32:11;;;;;;;4.20;3.17;;;11.30;99.90;;;;;;4958799;28;20496;-87
2024/02/07 09:34:42;;;;;;;3.50;2.80;;;11.40;99.90;;;;;;4969163;28;20256;-86
2024/02/07 09:37:08;;;;;;;5.20;2.72;;;10.90;99.90;;;;;;4980208;28;20718;-86
2024/02/07 09:39:33;;;;;;;3.90;2.73;;;11.50;99.90;;;;;;4969065;28;20183;-86
2024/02/07 09:42:03;;;;;;;5.03;2.87;;;11.00;99.90;;;;;;4952251;28;20267;-86
2024/02/07 09:44:31;;;;;;;2.97;2.22;;;10.50;99.90;;;;;;4966576;28;20202;-86
2024/02/07 09:47:00;;;;;;;2.88;2.22;;;10.70;99.90;;;;;;4965133;28;20194;-86
2024/02/07 09:49:28;;;;;;;4.57;2.78;;;11.00;99.90;;;;;;4964980;28;20186;-86
2024/02/07 09:51:54;;;;;;;3.75;2.85;;;11.20;99.90;;;;;;4965738;28;20184;-86
2024/02/07 09:54:22;;;;;;;4.23;3.17;;;11.30;99.90;;;;;;4950126;28;20214;-85
2024/02/07 09:56:50;;;;;;;5.18;2.83;;;11.20;99.90;;;;;;4969867;28;20439;-86
2024/02/07 09:59:19;;;;;;;4.40;2.70;;;11.20;99.90;;;;;;4968930;28;20188;-85
2024/02/07 10:01:45;;;;;;;4.70;3.08;;;11.30;99.90;;;;;;4966591;28;20174;-84
2024/02/07 10:04:34;;;;;;;6.07;2.80;;;11.50;99.90;;;;;;4965548;28;20662;-84
2024/02/07 10:07:00;;;;;;;7.80;2.60;;;11.50;99.90;;;;;;4953643;28;20195;-85
2024/02/07 10:09:30;;;;;;;5.70;3.10;;;11.30;99.90;;;;;;4967504;28;20245;-85
2024/02/07 10:11:55;;;;;;;6.05;2.25;;;11.30;99.90;;;;;;4952730;28;20251;-85
2024/02/07 10:14:22;;;;;;;5.23;2.30;;;11.60;99.90;;;;;;4962524;28;20211;-86
2024/02/07 10:16:48;;;;;;;3.78;2.38;;;11.60;99.90;;;;;;4960134;28;20610;-86
2024/02/07 10:19:13;;;;;;;3.57;2.50;;;12.00;99.90;;;;;;4962985;28;20380;-86
2024/02/07 10:21:39;;;;;;;4.27;3.00;;;12.10;99.90;;;;;;4967084;28;20234;-86
2024/02/07 10:24:06;;;;;;;2.80;2.43;;;11.90;99.90;;;;;;4961445;28;20252;-89
2024/02/07 10:26:32;;;;;;;2.45;2.25;;;11.90;99.90;;;;;;4944102;28;20211;-88
2024/02/07 10:29:03;;;;;;;4.28;2.60;;;11.70;99.90;;;;;;4958219;28;20261;-89
2024/02/07 10:31:28;;;;;;;3.25;2.10;;;12.10;99.90;;;;;;4960153;28;20226;-87
2024/02/07 10:33:58;;;;;;;4.10;2.43;;;11.80;99.90;;;;;;4957491;28;20251;-89
2024/02/07 10:36:24;;;;;;;2.55;2.05;;;12.30;99.90;;;;;;4958700;28;20207;-88
2024/02/07 10:39:02;;;;;;;2.92;2.25;;;11.80;99.90;;;;;;4962228;28;20267;-88
2024/02/07 10:41:28;;;;;;;4.43;2.20;;;12.10;99.90;;;;;;4948971;28;20259;-89
2024/02/07 10:44:04;;;;;;;3.17;2.13;;;12.40;99.90;;;;;;4961030;28;20187;-89
2024/02/07 10:46:29;;;;;;;2.00;1.77;;;11.90;99.90;;;;;;4958193;28;20715;-89
2024/02/07 10:48:55;;;;;;;2.23;1.90;;;11.70;99.90;;;;;;4946647;28;20287;-89
2024/02/07 10:51:21;;;;;;;2.55;2.30;;;12.40;99.90;;;;;;4961188;28;20597;-87
2024/02/07 10:53:47;;;;;;;4.67;1.93;;;12.30;99.90;;;;;;4959305;28;20329;-88
2024/02/07 10:56:14;;;;;;;2.63;2.27;;;11.80;99.90;;;;;;4960508;28;20235;-88
2024/02/07 10:58:41;;;;;;;7.10;2.00;;;12.30;99.90;;;;;;4959497;28;20443;-88
2024/02/07 11:01:08;;;;;;;2.10;1.60;;;12.10;99.90;;;;;;4960509;28;20286;-87
2024/02/07 11:03:35;;;;;;;1.85;1.70;;;11.90;99.90;;;;;;4959968;28;20197;-87
2024/02/07 11:06:01;;;;;;;2.17;1.73;;;12.10;99.90;;;;;;4959607;28;20207;-86
2024/02/07 11:08:28;;;;;;;2.95;1.98;;;12.10;99.90;;;;;;4957982;28;20679;-87
2024/02/07 11:10:54;;;;;;;2.47;1.95;;;12.40;99.90;;;;;;4960269;28;20191;-92
2024/02/07 11:13:20;;;;;;;3.00;2.70;;;13.00;99.90;;;;;;4942385;28;20219;-87
2024/02/07 11:15:46;;;;;;;3.37;2.37;;;12.00;99.90;;;;;;4958296;28;20752;-86
2024/02/07 11:18:13;;;;;;;3.27;2.97;;;12.10;99.90;;;;;;4966110;28;20167;-87
2024/02/07 11:20:40;;;;;;;3.47;2.30;;;12.30;99.90;;;;;;4980788;28;20928;-86
2024/02/07 11:23:18;;;;;;;2.20;1.90;;;12.30;99.90;;;;;;4978506;28;20199;-86
2024/02/07 11:25:47;;;;;;;4.15;2.20;;;11.90;99.90;;;;;;4979098;28;20214;-86
2024/02/07 11:28:13;;;;;;;2.28;2.05;;;12.30;99.90;;;;;;4970028;28;20227;-86
2024/02/07 11:30:39;;;;;;;3.37;1.90;;;12.10;99.90;;;;;;4964906;28;20581;-87
2024/02/07 11:33:05;;;;;;;3.42;2.33;;;12.10;99.90;;;;;;4960384;28;20523;-87
2024/02/07 11:35:35;;;;;;;2.97;2.10;;;12.10;99.90;;;;;;4958089;28;20240;-87
2024/02/07 11:38:02;;;;;;;2.80;2.60;;;12.00;99.90;;;;;;4975846;28;20214;-87
2024/02/07 11:40:40;;;;;;;2.53;1.73;;;12.30;99.90;;;;;;4964974;28;20288;-87
2024/02/07 11:43:09;;;;;;;3.58;2.00;;;12.90;99.90;;;;;;4959723;28;20203;-87
2024/02/07 11:45:39;;;;;;;2.28;1.90;;;12.40;99.90;;;;;;4960793;28;20204;-86
2024/02/07 11:48:18;;;;;;;3.38;1.80;;;11.80;99.90;;;;;;4953018;28;20204;-87
2024/02/07 11:50:45;;;;;;;1.77;1.63;;;12.30;99.90;;;;;;4983293;28;20180;-86
2024/02/07 11:53:26;;;;;;;3.38;1.90;;;12.50;99.90;;;;;;4973284;28;20211;-87
2024/02/07 11:55:52;;;;;;;2.17;1.98;;;12.60;99.90;;;;;;4969517;28;20200;-87
2024/02/07 11:58:18;;;;;;;5.07;1.80;;;12.60;99.90;;;;;;4961076;28;21324;-86
2024/02/07 12:00:45;;;;;;;2.13;1.92;;;13.00;99.90;;;;;;4960769;28;20242;-86
2024/02/07 12:03:15;;;;;;;3.70;2.22;;;13.30;99.90;;;;;;4960585;28;20251;-86
2024/02/07 12:05:43;;;;;;;4.05;2.65;;;13.00;99.30;;;;;;4944403;28;20212;-86
2024/02/07 12:08:10;;;;;;;2.10;1.90;;;13.60;99.80;;;;;;4972386;28;20203;-86
2024/02/07 12:10:36;;;;;;;4.13;1.70;;;13.50;99.10;;;;;;4962601;28;20256;-87
2024/02/07 12:13:02;;;;;;;5.20;2.00;;;13.60;99.00;;;;;;4959561;28;20250;-87
2024/02/07 12:15:28;;;;;;;3.33;1.80;;;13.50;98.90;;;;;;4960386;28;20231;-87
2024/02/07 12:17:54;;;;;;;2.58;1.77;;;13.40;98.30;;;;;;4957204;28;20196;-87
2024/02/07 12:20:20;;;;;;;2.17;1.80;;;14.70;98.70;;;;;;4960914;28;20185;-87
2024/02/07 12:22:46;;;;;;;1.70;1.60;;;14.00;98.00;;;;;;4968884;28;20196;-86
2024/02/07 12:25:16;;;;;;;1.70;1.60;;;14.00;98.50;;;;;;4974063;28;20203;-87
2024/02/07 12:27:41;;;;;;;1.75;1.48;;;14.00;97.90;;;;;;4958825;28;20207;-87
2024/02/07 12:30:07;;;;;;;1.37;1.27;;;14.00;97.50;;;;;;4973665;28;20504;-86
2024/02/07 12:32:33;;;;;;;1.50;1.40;;;13.90;97.20;;;;;;4954950;28;20180;-87
2024/02/07 12:34:59;;;;;;;1.97;1.57;;;13.60;97.20;;;;;;4955703;28;20212;-87
2024/02/07 12:37:25;;;;;;;2.55;1.60;;;14.00;97.20;;;;;;4961931;28;20436;-87
2024/02/07 12:39:51;;;;;;;1.37;1.27;;;13.60;97.40;;;;;;4966342;28;20243;-86
2024/02/07 12:42:19;;;;;;;1.40;1.30;;;13.60;97.20;;;;;;4962846;28;20180;-87
2024/02/07 12:44:50;;;;;;;2.72;1.50;;;13.60;97.80;;;;;;4959373;28;20478;-86
2024/02/07 12:47:18;;;;;;;2.75;1.70;;;13.60;98.30;;;;;;4974596;28;20258;-87
2024/02/07 12:49:44;;;;;;;1.73;1.50;;;13.50;98.40;;;;;;4960108;28;20654;-86
2024/02/07 12:52:12;;;;;;;2.55;1.55;;;13.50;98.50;;;;;;4959409;28;20196;-86
2024/02/07 12:54:38;;;;;;;1.70;1.60;;;13.20;98.80;;;;;;4960971;28;20208;-85
2024/02/07 12:57:04;;;;;;;1.40;1.30;;;13.40;99.30;;;;;;4962393;28;20254;-85
2024/02/07 12:59:34;;;;;;;1.60;1.50;;;13.00;99.20;;;;;;4963540;28;20463;-85
2024/02/07 13:02:04;;;;;;;2.83;1.40;;;13.00;99.30;;;;;;4976252;28;20519;-85
2024/02/07 13:04:33;;;;;;;1.85;1.75;;;13.00;99.30;;;;;;4961281;28;20303;-86
2024/02/07 13:06:59;;;;;;;2.70;1.80;;;13.50;99.50;;;;;;4961616;28;20243;-88
2024/02/07 13:09:26;;;;;;;3.40;1.65;;;12.80;99.40;;;;;;4968965;28;20192;-85
2024/02/07 13:11:52;;;;;;;1.65;1.55;;;12.90;99.50;;;;;;4973017;28;20183;-88
2024/02/07 13:14:17;;;;;;;1.47;1.37;;;13.20;99.60;;;;;;4978521;28;20320;-86
2024/02/07 13:16:46;;;;;;;2.43;1.70;;;12.90;99.50;;;;;;4981801;28;20268;-85
2024/02/07 13:19:15;;;;;;;1.75;1.50;;;12.90;99.60;;;;;;4978805;28;20187;-86
2024/02/07 13:21:41;;;;;;;2.25;2.13;;;12.90;99.90;;;;;;4975689;28;20180;-89
2024/02/07 13:24:18;;;;;;;2.05;1.80;;;13.40;99.60;;;;;;4980939;28;20196;-87
2024/02/07 13:26:45;;;;;;;1.70;1.60;;;13.20;99.20;;;;;;4981682;28;20226;-87
2024/02/07 13:29:11;;;;;;;2.03;1.60;;;13.50;99.30;;;;;;4979195;28;20196;-87
2024/02/07 13:31:38;;;;;;;2.10;1.85;;;13.40;99.60;;;;;;4983226;28;20168;-87
2024/02/07 13:34:11;;;;;;;1.88;1.50;;;13.40;99.50;;;;;;4997236;28;20208;-88
2024/02/07 13:36:37;;;;;;;2.00;1.80;;;13.40;99.40;;;;;;4978124;28;20204;-86
2024/02/07 13:39:03;;;;;;;3.22;2.00;;;13.00;99.20;;;;;;4967019;28;20184;-89
2024/02/07 13:41:31;;;;;;;2.70;1.60;;;12.90;99.10;;;;;;4965528;28;21050;-90
2024/02/07 13:43:59;;;;;;;1.80;1.60;;;13.40;99.50;;;;;;4981620;28;20369;-89
2024/02/07 13:46:25;;;;;;;1.77;1.67;;;12.80;99.40;;;;;;4960441;28;20213;-89
2024/02/07 13:48:53;;;;;;;2.20;1.37;;;13.00;99.70;;;;;;4964082;28;20193;-90
2024/02/07 13:51:19;;;;;;;2.35;1.40;;;12.90;99.50;;;;;;4981758;28;20278;-89
2024/02/07 13:53:44;;;;;;;2.20;2.00;;;13.50;99.90;;;;;;4956881;28;20227;-88